Pagrindinis puslapis
METAR-TAF:

METAR-TAF

Oro uostai :

Oro pajėgų bazė Cameri

Novara, Italija

platuma: 45-31N, ilguma: 008-40E, Aukštis: 178 m

Dabartinis oras

Ataskaita buvo paskelbta 1 valandą ir 17 minutes, ne 06:55 UTC
Temperatūra -6°C
Drėgmė 100%
Slėgis 1024 hPa
Matomumas: 1000 m
Išsisklaidę debesys ne aukštis 4000 ft
rūkana

METAR: LIMN 190655Z /////KT 1000 BR SCT040 M06/M06 Q1024 RMK SCT VIS MIN 1000 BLK AMB

Laikas: 09:12 (08:12 UTC)

Prognozė

Ataskaita buvo paskelbta 3 valandos ir 12 minutes, ne 05:00 UTC
Prognozė galioja nuo 19 metu 06 UTC su 19 metu 15 UTC
Vėjas 2 kt nuo kintamojo kryptimis
Matomumas: 0100 m
ne aukštis 100 ft
įšaldymas rūko
Tapsmas
nuo 19 metu 09 UTC su 19 metu 11 UTC
Matomumas: 1200 m
Išsisklaidę debesys ne aukštis 3000 ft
rūkana

TAF: LIMN 190500Z 1906/1915 VRB02KT 0100 FZFG VV001 BECMG 1909/1911 1200 BR SCT030

Orai ataskaitas ir orų prognozės (METAR, TAF).

turimą stotys yra geltonos ir raudonos taškus žemėlapyje.

Perkelti pele per norėdami pamatyti stoties vardą.

Tada spustelėkite, norėdami matyti oro stebėjimo ir prognozės.

Norėdami pakeisti žemėlapį: spustelėkite ant žalios mygtukų su juodo kryžiaus žemyn,; žalią mygtuką su brūkšneliu, jei norite nutolinti; arba žalių rodyklių gretimoms žemėlapius.


METAR-TAF: